Time;durP1;ratioP1;P1;durP2;ratioP2;P2;SDS_P1;SDS_P2;PMS_P1;PMS_P2;Temp;Humidity;BMP_temperature;BMP_pressure;BME280_temperature;BME280_humidity;BME280_pressure;Samples;Min_cycle;Max_cycle;Signal;HPM_P1;HPM_P2
2023/08/13 00:02:19;;;;;;;3.58;3.38;;;;;;;;;;5010680;28;20113;-55
2023/08/13 00:04:44;;;;;;;3.72;3.45;;;;;;;;;;5011193;28;20022;-56
2023/08/13 00:07:10;;;;;;;4.13;3.85;;;;;;;;;;5010899;28;20472;-55
2023/08/13 00:09:35;;;;;;;3.50;3.30;;;;;;;;;;4993509;28;20157;-62
2023/08/13 00:12:01;;;;;;;4.18;3.80;;;;;;;;;;5011209;28;20044;-62
2023/08/13 00:14:26;;;;;;;4.38;3.88;;;;;;;;;;5010851;28;20045;-55
2023/08/13 00:16:51;;;;;;;4.68;4.28;;;;;;;;;;5010549;28;20036;-61
2023/08/13 00:19:17;;;;;;;5.50;4.18;;;;;;;;;;5010603;28;20030;-55
2023/08/13 00:21:42;;;;;;;4.60;4.20;;;;;;;;;;5010297;28;20122;-55
2023/08/13 00:24:07;;;;;;;4.20;3.90;;;;;;;;;;5010628;28;20042;-55
2023/08/13 00:26:33;;;;;;;5.57;4.03;;;;;;;;;;5010229;28;20147;-55
2023/08/13 00:28:59;;;;;;;4.72;4.30;;;;;;;;;;5010180;28;20537;-55
2023/08/13 00:31:24;;;;;;;4.80;4.25;;;;;;;;;;4992529;28;20034;-55
2023/08/13 00:33:50;;;;;;;6.20;4.53;;;;;;;;;;4992513;28;20076;-55
2023/08/13 00:36:15;;;;;;;4.85;3.97;;;;;;;;;;5010516;28;20132;-55
2023/08/13 00:38:41;;;;;;;4.45;3.85;;;;;;;;;;4993183;28;20141;-55
2023/08/13 00:41:07;;;;;;;3.78;3.50;;;;;;;;;;5010825;28;20084;-55
2023/08/13 00:43:32;;;;;;;3.40;3.03;;;;;;;;;;5010266;28;20125;-55
2023/08/13 00:45:57;;;;;;;3.53;3.10;;;;;;;;;;4992361;28;20026;-61
2023/08/13 00:48:23;;;;;;;6.05;3.65;;;;;;;;;;5010405;28;20022;-61
2023/08/13 00:50:48;;;;;;;3.88;3.38;;;;;;;;;;5010123;28;20050;-61
2023/08/13 00:53:14;;;;;;;3.78;3.47;;;;;;;;;;4992667;28;20061;-61
2023/08/13 00:55:40;;;;;;;3.95;3.58;;;;;;;;;;5010486;28;20121;-61
2023/08/13 00:58:05;;;;;;;4.28;3.88;;;;;;;;;;5010589;28;20168;-61
2023/08/13 01:00:31;;;;;;;4.57;4.18;;;;;;;;;;5010722;28;20080;-62
2023/08/13 01:02:56;;;;;;;6.78;4.30;;;;;;;;;;4992927;28;20029;-61
2023/08/13 01:05:24;;;;;;;4.22;3.92;;;;;;;;;;5010411;28;20480;-62
2023/08/13 01:07:53;;;;;;;3.80;3.50;;;;;;;;;;4992787;28;20022;-61
2023/08/13 01:10:23;;;;;;;6.38;4.40;;;;;;;;;;4994304;28;20506;-61
2023/08/13 01:12:55;;;;;;;5.07;4.40;;;;;;;;;;5014128;28;20034;-61
2023/08/13 01:15:28;;;;;;;5.82;4.45;;;;;;;;;;4996154;28;20048;-61
2023/08/13 01:17:55;;;;;;;5.38;4.40;;;;;;;;;;4996420;28;20043;-62
2023/08/13 01:20:28;;;;;;;4.93;4.15;;;;;;;;;;5013719;28;20590;-62
2023/08/13 01:22:53;;;;;;;4.95;4.40;;;;;;;;;;5013984;28;20096;-62
2023/08/13 01:25:19;;;;;;;4.03;3.72;;;;;;;;;;4996256;28;20068;-62
2023/08/13 01:28:03;;;;;;;5.28;4.03;;;;;;;;;;5013821;28;20176;-62
2023/08/13 01:30:47;;;;;;;5.43;4.00;;;;;;;;;;5013949;28;20435;-61
2023/08/13 01:33:14;;;;;;;4.82;3.63;;;;;;;;;;5013565;28;20568;-62
2023/08/13 01:35:41;;;;;;;4.10;3.80;;;;;;;;;;4995693;28;20028;-62
2023/08/13 01:38:07;;;;;;;4.13;3.90;;;;;;;;;;5013587;28;20034;-62
2023/08/13 01:40:32;;;;;;;4.72;4.05;;;;;;;;;;5013604;28;20037;-62
2023/08/13 01:42:58;;;;;;;4.25;3.95;;;;;;;;;;4996146;28;20038;-62
2023/08/13 01:45:23;;;;;;;4.47;3.70;;;;;;;;;;4979643;28;20069;-62
2023/08/13 01:47:49;;;;;;;4.20;3.80;;;;;;;;;;4996012;28;20057;-62
2023/08/13 01:50:15;;;;;;;4.20;3.80;;;;;;;;;;4995816;28;20076;-61
2023/08/13 01:52:40;;;;;;;5.30;3.85;;;;;;;;;;5013501;28;20033;-62
2023/08/13 01:55:06;;;;;;;4.28;3.92;;;;;;;;;;5013228;28;20037;-56
2023/08/13 01:57:32;;;;;;;4.13;3.75;;;;;;;;;;5013009;28;20069;-56
2023/08/13 01:59:57;;;;;;;5.07;4.07;;;;;;;;;;4995864;28;20068;-56
2023/08/13 02:02:23;;;;;;;4.22;3.88;;;;;;;;;;4995922;28;20120;-55
2023/08/13 02:04:49;;;;;;;4.03;3.63;;;;;;;;;;4995632;28;20037;-56
2023/08/13 02:07:15;;;;;;;4.50;3.80;;;;;;;;;;4995391;28;20030;-56
2023/08/13 02:09:41;;;;;;;4.55;4.20;;;;;;;;;;5013191;28;20022;-55
2023/08/13 02:12:06;;;;;;;4.32;3.92;;;;;;;;;;4995317;28;20040;-62
2023/08/13 02:14:32;;;;;;;5.13;3.85;;;;;;;;;;5012543;28;20030;-62
2023/08/13 02:16:58;;;;;;;6.32;3.97;;;;;;;;;;4995337;28;20034;-62
2023/08/13 02:19:24;;;;;;;4.10;3.67;;;;;;;;;;4995406;28;20029;-62
2023/08/13 02:21:49;;;;;;;4.90;4.07;;;;;;;;;;4994711;28;20034;-62
2023/08/13 02:24:14;;;;;;;4.32;4.00;;;;;;;;;;5013039;28;20026;-62
2023/08/13 02:26:40;;;;;;;4.15;3.85;;;;;;;;;;4995216;28;20370;-62
2023/08/13 02:29:06;;;;;;;4.53;3.88;;;;;;;;;;4995045;28;20036;-62
2023/08/13 02:31:31;;;;;;;5.15;4.00;;;;;;;;;;4994981;28;20544;-62
2023/08/13 02:33:56;;;;;;;4.93;3.72;;;;;;;;;;4994501;28;20568;-62
2023/08/13 02:36:22;;;;;;;3.88;3.58;;;;;;;;;;5011781;28;20050;-62
2023/08/13 02:38:47;;;;;;;5.72;3.78;;;;;;;;;;5011961;28;20026;-62
2023/08/13 02:41:12;;;;;;;4.15;3.85;;;;;;;;;;5012561;28;20419;-56
2023/08/13 02:43:55;;;;;;;4.43;3.72;;;;;;;;;;4995164;28;20037;-57
2023/08/13 02:46:21;;;;;;;4.55;3.50;;;;;;;;;;4994854;28;20034;-56
2023/08/13 02:48:46;;;;;;;5.22;3.78;;;;;;;;;;5012595;28;20141;-56
2023/08/13 02:51:12;;;;;;;4.18;3.78;;;;;;;;;;4994900;28;20036;-56
2023/08/13 02:53:37;;;;;;;5.65;3.58;;;;;;;;;;5012343;28;20065;-56
2023/08/13 02:56:03;;;;;;;5.75;4.07;;;;;;;;;;4994346;28;20464;-56
2023/08/13 02:58:28;;;;;;;6.82;4.15;;;;;;;;;;5012084;28;20076;-56
2023/08/13 03:00:55;;;;;;;3.72;3.40;;;;;;;;;;4994633;28;20013;-56
2023/08/13 03:03:20;;;;;;;4.55;3.72;;;;;;;;;;4994683;28;20108;-55
2023/08/13 03:05:46;;;;;;;4.78;3.88;;;;;;;;;;4994530;28;20499;-55
2023/08/13 03:08:12;;;;;;;5.53;4.10;;;;;;;;;;4994340;28;20025;-55
2023/08/13 03:10:37;;;;;;;6.65;3.95;;;;;;;;;;5011783;28;20876;-62
2023/08/13 03:13:02;;;;;;;6.75;4.10;;;;;;;;;;4993736;28;20029;-62
2023/08/13 03:15:28;;;;;;;6.32;4.43;;;;;;;;;;5011408;28;20089;-62
2023/08/13 03:17:53;;;;;;;6.65;4.25;;;;;;;;;;4993786;28;20036;-62
2023/08/13 03:20:19;;;;;;;4.65;4.22;;;;;;;;;;4993711;28;20456;-61
2023/08/13 03:22:44;;;;;;;6.68;4.63;;;;;;;;;;4994037;28;20030;-61
2023/08/13 03:25:11;;;;;;;6.70;4.45;;;;;;;;;;4994335;28;20022;-62
2023/08/13 03:27:37;;;;;;;7.50;4.50;;;;;;;;;;4994113;28;20054;-62
2023/08/13 03:30:05;;;;;;;6.40;5.10;;;;;;;;;;4994109;28;20057;-62
2023/08/13 03:32:30;;;;;;;4.97;4.47;;;;;;;;;;4993589;28;20068;-61
2023/08/13 03:34:56;;;;;;;6.80;4.43;;;;;;;;;;4993812;28;20030;-61
2023/08/13 03:37:21;;;;;;;5.60;4.78;;;;;;;;;;4993723;28;20049;-61
2023/08/13 03:39:48;;;;;;;6.18;4.75;;;;;;;;;;4993636;28;20033;-61
2023/08/13 03:42:13;;;;;;;5.82;4.18;;;;;;;;;;4993954;28;20051;-61
2023/08/13 03:44:40;;;;;;;4.80;4.40;;;;;;;;;;4994053;28;20476;-61
2023/08/13 03:47:05;;;;;;;5.97;4.40;;;;;;;;;;4977585;28;20032;-61
2023/08/13 03:49:30;;;;;;;5.75;4.53;;;;;;;;;;4993562;28;20124;-61
2023/08/13 03:51:56;;;;;;;7.05;4.72;;;;;;;;;;5011007;28;20037;-61
2023/08/13 03:54:21;;;;;;;6.82;4.93;;;;;;;;;;4993633;28;20462;-61
2023/08/13 03:56:46;;;;;;;5.22;4.75;;;;;;;;;;4993561;28;20080;-62
2023/08/13 03:59:12;;;;;;;6.82;4.68;;;;;;;;;;4993391;28;20080;-62
2023/08/13 04:01:38;;;;;;;6.00;4.95;;;;;;;;;;4993589;28;20030;-55
2023/08/13 04:04:03;;;;;;;5.63;4.50;;;;;;;;;;5011393;28;20034;-55
2023/08/13 04:06:29;;;;;;;5.75;5.05;;;;;;;;;;4993167;28;20534;-55
2023/08/13 04:08:54;;;;;;;6.82;5.00;;;;;;;;;;4993539;28;20038;-55
2023/08/13 04:11:20;;;;;;;5.47;4.93;;;;;;;;;;4993493;28;20483;-56
2023/08/13 04:13:45;;;;;;;5.70;4.95;;;;;;;;;;5010998;28;20049;-56
2023/08/13 04:16:10;;;;;;;9.95;5.25;;;;;;;;;;4993227;28;20028;-56
2023/08/13 04:18:36;;;;;;;5.13;4.63;;;;;;;;;;4992825;28;20038;-56
2023/08/13 04:21:02;;;;;;;5.93;5.22;;;;;;;;;;4992550;28;20121;-56
2023/08/13 04:23:27;;;;;;;9.00;5.18;;;;;;;;;;5010897;28;20550;-56
2023/08/13 04:25:53;;;;;;;9.27;5.43;;;;;;;;;;4993357;28;20030;-61
2023/08/13 04:28:19;;;;;;;6.00;4.57;;;;;;;;;;4993353;28;20014;-56
2023/08/13 04:30:45;;;;;;;4.78;4.38;;;;;;;;;;4992828;28;20034;-56
2023/08/13 04:33:11;;;;;;;4.70;4.28;;;;;;;;;;4993132;28;20897;-56
2023/08/13 04:35:37;;;;;;;6.13;4.35;;;;;;;;;;4992962;28;20060;-56
2023/08/13 04:38:03;;;;;;;8.70;5.45;;;;;;;;;;4990216;28;20435;-55
2023/08/13 04:40:31;;;;;;;4.90;3.78;;;;;;;;;;4991188;28;20105;-56
2023/08/13 04:42:58;;;;;;;4.95;4.45;;;;;;;;;;4993267;28;20036;-55
2023/08/13 04:45:23;;;;;;;4.63;4.13;;;;;;;;;;4994182;28;20030;-56
2023/08/13 04:47:49;;;;;;;7.35;4.80;;;;;;;;;;4995720;28;20488;-62
2023/08/13 04:50:15;;;;;;;5.05;4.20;;;;;;;;;;4995499;28;20022;-56
2023/08/13 04:52:41;;;;;;;5.75;4.53;;;;;;;;;;4995427;28;20480;-61
2023/08/13 04:55:07;;;;;;;5.57;4.85;;;;;;;;;;5012793;28;20116;-56
2023/08/13 04:57:32;;;;;;;6.65;4.68;;;;;;;;;;4995202;28;20101;-62
2023/08/13 04:59:58;;;;;;;7.93;4.88;;;;;;;;;;4995881;28;20037;-61
2023/08/13 05:02:25;;;;;;;6.60;5.10;;;;;;;;;;4996707;28;20428;-61
2023/08/13 05:04:50;;;;;;;5.85;5.32;;;;;;;;;;4994463;28;20062;-61
2023/08/13 05:07:15;;;;;;;6.47;5.28;;;;;;;;;;4995153;28;20088;-61
2023/08/13 05:09:41;;;;;;;8.52;6.35;;;;;;;;;;5012888;28;20036;-61
2023/08/13 05:12:07;;;;;;;7.78;5.78;;;;;;;;;;4996035;28;20030;-61
2023/08/13 05:14:33;;;;;;;6.55;5.18;;;;;;;;;;4995370;28;20113;-61
2023/08/13 05:16:58;;;;;;;6.40;5.80;;;;;;;;;;4994784;28;20061;-61
2023/08/13 05:19:23;;;;;;;5.22;4.43;;;;;;;;;;5012725;28;20033;-61
2023/08/13 05:21:49;;;;;;;8.50;4.35;;;;;;;;;;4994580;28;20571;-62
2023/08/13 05:24:17;;;;;;;5.40;4.70;;;;;;;;;;4994276;28;20030;-62
2023/08/13 05:26:42;;;;;;;6.15;4.72;;;;;;;;;;4994996;28;20497;-62
2023/08/13 05:29:08;;;;;;;6.03;5.35;;;;;;;;;;5012569;28;20034;-62
2023/08/13 05:31:34;;;;;;;5.97;5.07;;;;;;;;;;4995299;28;20018;-62
2023/08/13 05:34:00;;;;;;;8.55;5.60;;;;;;;;;;4978790;28;20530;-62
2023/08/13 05:36:26;;;;;;;5.82;5.30;;;;;;;;;;4994959;28;20154;-62
2023/08/13 05:38:52;;;;;;;4.53;4.13;;;;;;;;;;4995135;28;20112;-62
2023/08/13 05:41:17;;;;;;;4.53;4.10;;;;;;;;;;4995381;28;20041;-62
2023/08/13 05:43:44;;;;;;;4.43;4.03;;;;;;;;;;4995328;28;20041;-62
2023/08/13 05:46:09;;;;;;;5.00;4.13;;;;;;;;;;4979064;28;20103;-62
2023/08/13 05:48:35;;;;;;;5.50;5.07;;;;;;;;;;4995505;28;20025;-62
2023/08/13 05:51:01;;;;;;;4.53;4.22;;;;;;;;;;4994426;28;20037;-62
2023/08/13 05:53:26;;;;;;;5.00;4.60;;;;;;;;;;4994133;28;20036;-62
2023/08/13 05:55:52;;;;;;;6.68;5.82;;;;;;;;;;4992802;28;20046;-62
2023/08/13 05:58:18;;;;;;;5.50;5.00;;;;;;;;;;5010338;28;20468;-61
2023/08/13 06:00:43;;;;;;;6.13;5.20;;;;;;;;;;5012489;28;20033;-57
2023/08/13 06:03:08;;;;;;;6.72;5.80;;;;;;;;;;5012935;28;20018;-57
2023/08/13 06:05:34;;;;;;;7.00;6.30;;;;;;;;;;4994415;28;20440;-56
2023/08/13 06:07:59;;;;;;;5.95;4.95;;;;;;;;;;5012955;28;20044;-56
2023/08/13 06:10:25;;;;;;;6.40;5.38;;;;;;;;;;5012693;28;20029;-56
2023/08/13 06:12:51;;;;;;;4.95;4.45;;;;;;;;;;5012692;28;20487;-56
2023/08/13 06:15:16;;;;;;;4.70;4.30;;;;;;;;;;5012380;28;20037;-56
2023/08/13 06:17:42;;;;;;;4.60;4.22;;;;;;;;;;5012670;28;20064;-57
2023/08/13 06:20:09;;;;;;;4.53;4.22;;;;;;;;;;5011710;28;20026;-56
2023/08/13 06:22:35;;;;;;;4.53;4.13;;;;;;;;;;5010728;28;20113;-57
2023/08/13 06:25:00;;;;;;;4.90;4.47;;;;;;;;;;5011090;28;20128;-57
2023/08/13 06:27:25;;;;;;;4.80;4.40;;;;;;;;;;4992720;28;20042;-56
2023/08/13 06:29:51;;;;;;;5.93;4.22;;;;;;;;;;4993151;28;20030;-56
2023/08/13 06:32:16;;;;;;;3.97;3.65;;;;;;;;;;4993674;28;20490;-57
2023/08/13 06:34:41;;;;;;;4.47;4.03;;;;;;;;;;4992672;28;20033;-61
2023/08/13 06:37:07;;;;;;;3.92;3.63;;;;;;;;;;5010202;28;20057;-56
2023/08/13 06:39:32;;;;;;;4.35;4.05;;;;;;;;;;5010485;28;20064;-57
2023/08/13 06:41:58;;;;;;;3.78;3.42;;;;;;;;;;5010141;28;20117;-56
2023/08/13 06:44:27;;;;;;;3.90;3.53;;;;;;;;;;4992580;28;20427;-56
2023/08/13 06:46:53;;;;;;;3.92;3.65;;;;;;;;;;5011036;28;20034;-56
2023/08/13 06:49:18;;;;;;;5.25;3.95;;;;;;;;;;5012019;28;20048;-56
2023/08/13 06:51:43;;;;;;;3.92;3.63;;;;;;;;;;5011845;28;20026;-56
2023/08/13 06:54:10;;;;;;;5.18;3.95;;;;;;;;;;5011291;28;20117;-56
2023/08/13 06:56:35;;;;;;;4.78;3.95;;;;;;;;;;5007604;28;20427;-56
2023/08/13 06:59:02;;;;;;;4.00;3.40;;;;;;;;;;5010146;28;20030;-61
2023/08/13 07:01:27;;;;;;;3.72;3.42;;;;;;;;;;5010682;28;20034;-61
2023/08/13 07:03:53;;;;;;;5.25;3.42;;;;;;;;;;5011685;28;20032;-61
2023/08/13 07:06:18;;;;;;;3.75;3.45;;;;;;;;;;5011634;28;20029;-61
2023/08/13 07:08:43;;;;;;;6.18;3.63;;;;;;;;;;5010653;28;20539;-61
2023/08/13 07:11:09;;;;;;;3.33;3.03;;;;;;;;;;5011739;28;20033;-61
2023/08/13 07:13:34;;;;;;;3.72;3.42;;;;;;;;;;5011513;28;20105;-61
2023/08/13 07:15:59;;;;;;;3.67;3.38;;;;;;;;;;5011327;28;20037;-61
2023/08/13 07:18:25;;;;;;;4.82;3.38;;;;;;;;;;5010399;28;20445;-61
2023/08/13 07:20:50;;;;;;;3.38;3.17;;;;;;;;;;4992617;28;20061;-61
2023/08/13 07:23:15;;;;;;;3.58;3.30;;;;;;;;;;5009657;28;20056;-61
2023/08/13 07:25:41;;;;;;;3.83;3.53;;;;;;;;;;5009287;28;20124;-56
2023/08/13 07:28:06;;;;;;;3.35;2.97;;;;;;;;;;5009350;28;20038;-57
2023/08/13 07:30:31;;;;;;;4.10;3.65;;;;;;;;;;5009831;28;20030;-61
2023/08/13 07:32:57;;;;;;;3.95;3.65;;;;;;;;;;5010511;28;20049;-61
2023/08/13 07:35:22;;;;;;;3.33;3.13;;;;;;;;;;5008900;28;20030;-62
2023/08/13 07:37:47;;;;;;;5.57;3.20;;;;;;;;;;4992052;28;20050;-62
2023/08/13 07:40:13;;;;;;;4.53;3.47;;;;;;;;;;4992560;28;20030;-62
2023/08/13 07:42:39;;;;;;;2.63;2.42;;;;;;;;;;5010311;28;20033;-62
2023/08/13 07:45:07;;;;;;;3.38;2.58;;;;;;;;;;5010248;28;20610;-62
2023/08/13 07:47:35;;;;;;;4.05;1.92;;;;;;;;;;4991478;28;20041;-62
2023/08/13 07:50:01;;;;;;;3.65;3.35;;;;;;;;;;5009739;28;20057;-62
2023/08/13 07:52:26;;;;;;;2.72;2.30;;;;;;;;;;5009442;28;20026;-62
2023/08/13 07:54:52;;;;;;;2.92;2.80;;;;;;;;;;5009266;28;20088;-62
2023/08/13 07:57:17;;;;;;;4.03;3.30;;;;;;;;;;5009951;28;20026;-62
2023/08/13 07:59:42;;;;;;;2.25;2.05;;;;;;;;;;5010132;28;20028;-62
2023/08/13 08:02:08;;;;;;;4.00;3.05;;;;;;;;;;5008935;28;20471;-62
2023/08/13 08:04:33;;;;;;;3.20;3.00;;;;;;;;;;5009917;28;20112;-62
2023/08/13 08:06:59;;;;;;;3.67;2.47;;;;;;;;;;4991466;28;20042;-61
2023/08/13 08:09:24;;;;;;;6.68;2.58;;;;;;;;;;5009377;28;20025;-62
2023/08/13 08:11:50;;;;;;;4.43;2.90;;;;;;;;;;5009482;28;20395;-62
2023/08/13 08:14:15;;;;;;;4.15;2.75;;;;;;;;;;5009413;28;20073;-62
2023/08/13 08:16:41;;;;;;;4.25;3.13;;;;;;;;;;5009717;28;20066;-62
2023/08/13 08:19:06;;;;;;;3.08;2.85;;;;;;;;;;5009679;28;20486;-62
2023/08/13 08:21:31;;;;;;;2.70;2.58;;;;;;;;;;5009996;28;20040;-62
2023/08/13 08:23:57;;;;;;;3.20;3.00;;;;;;;;;;4991598;28;20026;-62
2023/08/13 08:26:23;;;;;;;5.47;2.90;;;;;;;;;;5009803;28;20022;-62
2023/08/13 08:28:48;;;;;;;3.15;2.88;;;;;;;;;;5010103;28;20060;-63
2023/08/13 08:31:13;;;;;;;2.63;2.53;;;;;;;;;;5010091;28;20034;-63
2023/08/13 08:33:39;;;;;;;1.33;1.23;;;;;;;;;;4992634;28;20033;-62
2023/08/13 08:36:04;;;;;;;3.38;3.17;;;;;;;;;;4991952;28;20485;-63
2023/08/13 08:38:30;;;;;;;2.67;2.50;;;;;;;;;;5009259;28;20037;-62
2023/08/13 08:40:58;;;;;;;2.90;2.67;;;;;;;;;;5008319;28;20029;-63
2023/08/13 08:43:26;;;;;;;7.50;2.72;;;;;;;;;;5009019;28;20099;-62
2023/08/13 08:45:51;;;;;;;3.05;2.85;;;;;;;;;;5009232;28;20041;-62
2023/08/13 08:48:17;;;;;;;2.83;2.63;;;;;;;;;;4992715;28;20037;-62
2023/08/13 08:50:43;;;;;;;2.42;2.33;;;;;;;;;;5009162;28;20041;-62
2023/08/13 08:53:09;;;;;;;7.03;3.80;;;;;;;;;;5008503;28;20028;-62
2023/08/13 08:55:35;;;;;;;2.95;2.72;;;;;;;;;;5009984;28;20034;-62
2023/08/13 08:58:00;;;;;;;5.47;3.75;;;;;;;;;;5009844;28;20483;-62
2023/08/13 09:00:25;;;;;;;4.35;3.47;;;;;;;;;;5007747;28;20041;-62
2023/08/13 09:02:51;;;;;;;3.53;3.22;;;;;;;;;;4990229;28;20088;-62
2023/08/13 09:05:16;;;;;;;4.25;3.70;;;;;;;;;;4990450;28;20046;-62
2023/08/13 09:07:44;;;;;;;4.95;4.13;;;;;;;;;;4990318;28;20122;-62
2023/08/13 09:10:11;;;;;;;7.30;5.13;;;;;;;;;;5008162;28;20038;-62
2023/08/13 09:12:36;;;;;;;5.47;3.90;;;;;;;;;;5007530;28;20022;-62
2023/08/13 09:15:02;;;;;;;8.65;4.47;;;;;;;;;;5008108;28;20418;-62
2023/08/13 09:17:29;;;;;;;8.38;4.90;;;;;;;;;;5007850;28;20038;-62
2023/08/13 09:19:56;;;;;;;6.78;4.50;;;;;;;;;;5007952;28;20022;-62
2023/08/13 09:22:21;;;;;;;6.40;4.80;;;;;;;;;;5007819;28;20026;-62
2023/08/13 09:24:48;;;;;;;5.20;3.95;;;;;;;;;;5008460;28;20285;-62
2023/08/13 09:27:14;;;;;;;5.70;4.05;;;;;;;;;;5008905;28;20018;-57
2023/08/13 09:29:39;;;;;;;5.85;2.88;;;;;;;;;;5009745;28;20084;-57
2023/08/13 09:32:05;;;;;;;10.00;4.30;;;;;;;;;;5011700;28;20052;-62
2023/08/13 09:34:31;;;;;;;5.82;3.50;;;;;;;;;;4995228;28;20033;-62
2023/08/13 09:36:57;;;;;;;8.23;4.53;;;;;;;;;;5012588;28;20385;-62
2023/08/13 09:39:23;;;;;;;3.15;2.78;;;;;;;;;;5012161;28;20036;-62
2023/08/13 09:41:51;;;;;;;5.40;3.80;;;;;;;;;;5013210;28;20446;-62
2023/08/13 09:44:20;;;;;;;7.82;4.25;;;;;;;;;;5012873;28;20077;-62
2023/08/13 09:46:51;;;;;;;7.22;4.38;;;;;;;;;;5012788;28;20088;-62
2023/08/13 09:49:17;;;;;;;4.75;3.63;;;;;;;;;;5011352;28;20062;-62
2023/08/13 09:51:47;;;;;;;5.63;3.65;;;;;;;;;;5011761;28;20440;-62
2023/08/13 09:54:26;;;;;;;6.93;3.75;;;;;;;;;;4993943;28;20069;-62
2023/08/13 09:56:55;;;;;;;5.70;3.90;;;;;;;;;;5011754;28;20026;-62
2023/08/13 09:59:20;;;;;;;8.38;4.05;;;;;;;;;;5011729;28;20476;-62
2023/08/13 10:01:45;;;;;;;7.55;4.28;;;;;;;;;;5011574;28;20052;-62
2023/08/13 10:04:11;;;;;;;9.38;4.05;;;;;;;;;;5011641;28;20036;-62
2023/08/13 10:06:36;;;;;;;4.00;3.65;;;;;;;;;;5011273;28;20480;-62
2023/08/13 10:09:02;;;;;;;5.35;4.00;;;;;;;;;;5011443;28;20022;-62
2023/08/13 10:11:27;;;;;;;6.20;4.90;;;;;;;;;;5011221;28;20030;-62
2023/08/13 10:13:53;;;;;;;6.60;4.10;;;;;;;;;;5011535;28;20034;-62
2023/08/13 10:16:19;;;;;;;4.82;2.88;;;;;;;;;;4993287;28;20112;-62
2023/08/13 10:18:46;;;;;;;5.75;4.15;;;;;;;;;;5011369;28;20065;-62
2023/08/13 10:21:12;;;;;;;5.25;3.25;;;;;;;;;;5011201;28;20485;-62
2023/08/13 10:23:37;;;;;;;4.97;3.78;;;;;;;;;;5010958;28;20036;-62
2023/08/13 10:26:02;;;;;;;4.35;3.65;;;;;;;;;;5010875;28;20038;-62
2023/08/13 10:28:31;;;;;;;3.38;3.15;;;;;;;;;;5010984;28;20117;-62
2023/08/13 10:31:14;;;;;;;5.18;3.58;;;;;;;;;;5011433;28;20038;-62
2023/08/13 10:33:40;;;;;;;3.92;3.50;;;;;;;;;;5011199;28;20390;-62
2023/08/13 10:36:09;;;;;;;3.08;2.85;;;;;;;;;;5010656;28;20458;-62
2023/08/13 10:38:34;;;;;;;3.85;3.45;;;;;;;;;;5011060;28;20026;-62
2023/08/13 10:41:02;;;;;;;5.22;3.13;;;;;;;;;;4993517;28;20104;-62
2023/08/13 10:43:27;;;;;;;3.85;3.55;;;;;;;;;;4992512;28;20033;-62
2023/08/13 10:45:52;;;;;;;3.42;3.13;;;;;;;;;;5010641;28;20095;-62
2023/08/13 10:48:25;;;;;;;5.50;3.90;;;;;;;;;;4993105;28;20373;-62
2023/08/13 10:50:53;;;;;;;3.45;2.90;;;;;;;;;;5010604;28;20045;-62
2023/08/13 10:53:19;;;;;;;3.38;3.00;;;;;;;;;;5010645;28;20032;-62
2023/08/13 10:55:49;;;;;;;4.50;3.50;;;;;;;;;;5010297;28;20474;-62
2023/08/13 10:58:27;;;;;;;8.65;4.22;;;;;;;;;;5010523;28;20034;-62
2023/08/13 11:00:59;;;;;;;3.28;2.35;;;;;;;;;;4992687;28;20129;-62
2023/08/13 11:03:29;;;;;;;5.07;3.47;;;;;;;;;;5010654;28;20030;-62
2023/08/13 11:05:54;;;;;;;4.70;3.47;;;;;;;;;;5010197;28;20120;-62
2023/08/13 11:08:21;;;;;;;7.63;4.55;;;;;;;;;;5010198;28;20026;-62
2023/08/13 11:10:47;;;;;;;3.50;3.13;;;;;;;;;;5010255;28;20045;-62
2023/08/13 11:13:12;;;;;;;3.00;2.80;;;;;;;;;;5009948;28;20061;-62
2023/08/13 11:15:38;;;;;;;3.65;2.60;;;;;;;;;;5010133;28;20030;-62
2023/08/13 11:18:03;;;;;;;7.40;5.70;;;;;;;;;;4992439;28;20025;-62
2023/08/13 11:20:28;;;;;;;4.40;2.85;;;;;;;;;;5009744;28;20153;-62
2023/08/13 11:22:54;;;;;;;5.95;3.28;;;;;;;;;;4988860;28;20026;-62
2023/08/13 11:25:19;;;;;;;6.55;3.78;;;;;;;;;;5006295;28;20029;-62
2023/08/13 11:27:45;;;;;;;4.93;3.38;;;;;;;;;;5010131;28;20026;-62
2023/08/13 11:30:11;;;;;;;4.15;3.63;;;;;;;;;;5010303;28;20141;-62
2023/08/13 11:32:36;;;;;;;4.10;3.25;;;;;;;;;;5009924;28;20117;-62
2023/08/13 11:35:06;;;;;;;4.82;3.83;;;;;;;;;;4992057;28;20040;-62
2023/08/13 11:37:32;;;;;;;4.25;3.85;;;;;;;;;;5009764;28;20053;-62
2023/08/13 11:39:57;;;;;;;4.78;3.50;;;;;;;;;;5009861;28;20038;-62
2023/08/13 11:42:23;;;;;;;3.60;3.08;;;;;;;;;;5009808;28;20026;-62
2023/08/13 11:44:49;;;;;;;3.20;2.90;;;;;;;;;;5009931;28;20544;-62
2023/08/13 11:47:22;;;;;;;4.75;4.22;;;;;;;;;;5009942;28;20026;-62
2023/08/13 11:49:48;;;;;;;6.28;4.32;;;;;;;;;;4991997;28;20427;-62
2023/08/13 11:52:17;;;;;;;4.15;3.70;;;;;;;;;;5009491;28;20030;-62
2023/08/13 11:54:43;;;;;;;4.95;3.90;;;;;;;;;;5008908;28;20073;-62
2023/08/13 11:57:09;;;;;;;5.47;4.85;;;;;;;;;;5009478;28;20499;-62
2023/08/13 11:59:34;;;;;;;5.20;4.70;;;;;;;;;;5009711;28;20057;-62
2023/08/13 12:02:00;;;;;;;6.70;4.95;;;;;;;;;;5009472;28;20030;-62
2023/08/13 12:04:29;;;;;;;6.70;5.40;;;;;;;;;;4991334;28;20575;-62
2023/08/13 12:06:54;;;;;;;8.30;6.43;;;;;;;;;;5009477;28;20412;-62
2023/08/13 12:09:19;;;;;;;7.15;5.70;;;;;;;;;;4991635;28;20040;-57
2023/08/13 12:11:45;;;;;;;5.32;4.82;;;;;;;;;;5009298;28;20026;-57
2023/08/13 12:14:10;;;;;;;6.90;6.07;;;;;;;;;;5009148;28;20069;-57
2023/08/13 12:16:36;;;;;;;7.68;5.30;;;;;;;;;;5009325;28;20483;-57
2023/08/13 12:19:04;;;;;;;6.93;5.78;;;;;;;;;;4991587;28;20026;-57
2023/08/13 12:21:30;;;;;;;7.38;6.10;;;;;;;;;;5009016;28;20521;-57
2023/08/13 12:23:55;;;;;;;11.48;6.88;;;;;;;;;;5009085;28;20033;-57
2023/08/13 12:26:21;;;;;;;10.68;6.85;;;;;;;;;;5009010;28;20389;-57
2023/08/13 12:28:50;;;;;;;11.80;8.68;;;;;;;;;;4992700;28;20087;-57
2023/08/13 12:31:16;;;;;;;10.23;7.03;;;;;;;;;;5010324;28;20030;-57
2023/08/13 12:33:41;;;;;;;13.13;7.72;;;;;;;;;;5010446;28;20673;-57
2023/08/13 12:36:06;;;;;;;9.27;7.40;;;;;;;;;;4992601;28;20058;-57
2023/08/13 12:38:33;;;;;;;9.57;7.28;;;;;;;;;;5010542;28;20554;-57
2023/08/13 12:40:59;;;;;;;9.00;7.28;;;;;;;;;;4993236;28;20042;-57
2023/08/13 12:43:24;;;;;;;7.47;6.25;;;;;;;;;;5010412;28;20107;-57
2023/08/13 12:45:49;;;;;;;8.43;7.30;;;;;;;;;;5010330;28;20483;-57
2023/08/13 12:48:15;;;;;;;7.30;6.10;;;;;;;;;;5010499;28;20038;-57
2023/08/13 12:50:40;;;;;;;10.23;7.45;;;;;;;;;;4992891;28;20444;-57
2023/08/13 12:53:05;;;;;;;7.95;7.13;;;;;;;;;;5010357;28;20038;-57
2023/08/13 12:55:31;;;;;;;12.38;8.55;;;;;;;;;;5010123;28;20524;-57
2023/08/13 12:57:56;;;;;;;7.53;6.65;;;;;;;;;;5009426;28;20045;-57
2023/08/13 13:00:23;;;;;;;8.48;6.50;;;;;;;;;;5010669;28;20093;-57
2023/08/13 13:02:48;;;;;;;10.13;6.68;;;;;;;;;;5010068;28;20392;-57
2023/08/13 13:05:13;;;;;;;8.52;7.25;;;;;;;;;;5010215;28;20030;-57
2023/08/13 13:07:39;;;;;;;13.90;8.52;;;;;;;;;;5013597;28;20053;-62
2023/08/13 13:10:05;;;;;;;9.98;7.30;;;;;;;;;;5012966;28;20558;-61
2023/08/13 13:12:30;;;;;;;8.55;6.15;;;;;;;;;;5012313;28;20096;-61
2023/08/13 13:14:56;;;;;;;7.40;6.15;;;;;;;;;;5012395;28;20032;-61
2023/08/13 13:17:25;;;;;;;8.45;6.70;;;;;;;;;;5012373;28;20499;-62
2023/08/13 13:19:52;;;;;;;7.70;6.90;;;;;;;;;;5009523;28;20036;-62
2023/08/13 13:22:17;;;;;;;8.23;6.85;;;;;;;;;;5011864;28;20112;-62
2023/08/13 13:24:43;;;;;;;8.65;7.03;;;;;;;;;;5011733;28;20030;-57
2023/08/13 13:27:08;;;;;;;7.72;6.13;;;;;;;;;;5011511;28;20491;-57
2023/08/13 13:29:33;;;;;;;4.57;4.20;;;;;;;;;;5011704;28;20029;-57
2023/08/13 13:32:00;;;;;;;9.98;6.82;;;;;;;;;;5011830;28;20029;-58
2023/08/13 13:34:25;;;;;;;8.65;6.60;;;;;;;;;;5013129;28;20065;-57
2023/08/13 13:36:50;;;;;;;14.02;7.53;;;;;;;;;;5013131;28;20461;-57
2023/08/13 13:39:16;;;;;;;7.47;5.82;;;;;;;;;;4978005;28;20037;-57
2023/08/13 13:41:41;;;;;;;8.50;6.07;;;;;;;;;;5012177;28;20034;-62
2023/08/13 13:44:06;;;;;;;7.18;5.45;;;;;;;;;;5013048;28;20030;-62
2023/08/13 13:46:32;;;;;;;6.30;5.68;;;;;;;;;;4995328;28;20506;-62
2023/08/13 13:48:57;;;;;;;4.78;4.40;;;;;;;;;;5013060;28;20072;-62
2023/08/13 13:51:22;;;;;;;8.48;5.93;;;;;;;;;;5012399;28;20117;-62
2023/08/13 13:53:48;;;;;;;10.45;6.43;;;;;;;;;;5011811;28;20037;-57
2023/08/13 13:56:14;;;;;;;8.55;6.47;;;;;;;;;;5011293;28;20092;-57
2023/08/13 13:58:39;;;;;;;6.32;5.20;;;;;;;;;;4994255;28;20033;-57
2023/08/13 14:01:05;;;;;;;8.35;5.80;;;;;;;;;;4979128;28;20555;-57
2023/08/13 14:03:30;;;;;;;7.68;5.43;;;;;;;;;;4994978;28;20029;-57
2023/08/13 14:05:55;;;;;;;7.72;5.68;;;;;;;;;;5012561;28;20476;-62
2023/08/13 14:08:21;;;;;;;7.40;6.03;;;;;;;;;;5012642;28;20041;-57
2023/08/13 14:10:46;;;;;;;6.25;5.60;;;;;;;;;;5013159;28;20042;-57
2023/08/13 14:13:11;;;;;;;7.05;5.60;;;;;;;;;;5013386;28;20109;-56
2023/08/13 14:15:37;;;;;;;5.35;4.82;;;;;;;;;;5012506;28;20037;-57
2023/08/13 14:18:02;;;;;;;9.02;6.70;;;;;;;;;;5010231;28;20637;-57
2023/08/13 14:20:27;;;;;;;7.18;5.57;;;;;;;;;;4992987;28;20033;-57
2023/08/13 14:22:53;;;;;;;8.02;5.57;;;;;;;;;;5010806;28;20033;-57
2023/08/13 14:25:18;;;;;;;8.00;5.70;;;;;;;;;;5010891;28;20499;-62
2023/08/13 14:27:43;;;;;;;6.35;5.25;;;;;;;;;;5011994;28;20030;-66
2023/08/13 14:30:09;;;;;;;8.98;5.60;;;;;;;;;;5012285;28;20034;-64
2023/08/13 14:32:34;;;;;;;5.78;5.18;;;;;;;;;;4993380;28;20030;-64
2023/08/13 14:34:59;;;;;;;6.88;5.55;;;;;;;;;;5011866;28;20038;-65
2023/08/13 14:37:25;;;;;;;7.65;5.60;;;;;;;;;;5011730;28;20192;-64